createdAt,value
2023-04-19T00:00:09.340Z,10.53
2023-04-19T00:02:42.901Z,8.70
2023-04-19T00:05:11.998Z,8.63
2023-04-19T00:07:40.440Z,9.27
2023-04-19T00:10:09.714Z,13.73
2023-04-19T00:12:37.733Z,12.70
2023-04-19T00:15:06.781Z,11.17
2023-04-19T00:17:35.368Z,12.03
2023-04-19T00:20:06.639Z,10.27
2023-04-19T00:22:35.121Z,12.27
2023-04-19T00:25:03.819Z,13.93
2023-04-19T00:27:31.866Z,11.83
2023-04-19T00:30:00.591Z,12.47
2023-04-19T00:32:28.770Z,9.70
2023-04-19T00:34:58.943Z,12.27
2023-04-19T00:37:28.244Z,11.97
2023-04-19T00:39:56.256Z,10.93
2023-04-19T00:42:24.208Z,14.47
2023-04-19T00:44:52.226Z,14.03
2023-04-19T00:47:20.506Z,13.90
2023-04-19T00:49:48.581Z,11.13
2023-04-19T00:52:17.682Z,11.70
2023-04-19T00:54:47.312Z,12.87
2023-04-19T00:57:16.616Z,11.73
2023-04-19T00:59:44.866Z,12.63
2023-04-19T01:02:12.917Z,13.43
2023-04-19T01:04:41.127Z,12.50
2023-04-19T01:07:09.693Z,13.57
2023-04-19T01:09:41.699Z,12.83
2023-04-19T01:12:11.170Z,16.27
2023-04-19T01:14:39.412Z,14.50
2023-04-19T01:17:08.722Z,12.97
2023-04-19T01:19:38.560Z,17.90
2023-04-19T01:22:06.971Z,15.20
2023-04-19T01:24:36.401Z,15.93
2023-04-19T01:27:04.646Z,14.93
2023-04-19T01:29:32.809Z,16.27
2023-04-19T01:32:01.142Z,15.30
2023-04-19T01:34:29.686Z,15.50
2023-04-19T01:36:58.438Z,14.00
2023-04-19T01:39:27.357Z,16.27
2023-04-19T01:41:57.069Z,25.30
2023-04-19T01:44:25.441Z,23.57
2023-04-19T01:46:55.091Z,24.87
2023-04-19T01:49:23.411Z,21.23
2023-04-19T01:51:51.482Z,18.60
2023-04-19T01:54:19.682Z,17.07
2023-04-19T01:56:50.847Z,15.87
2023-04-19T01:59:20.367Z,15.07
2023-04-19T02:01:48.750Z,14.63
2023-04-19T02:04:17.150Z,18.00
2023-04-19T02:06:45.886Z,17.77
2023-04-19T02:09:14.022Z,17.23
2023-04-19T02:11:43.765Z,17.23
2023-04-19T02:14:11.826Z,17.77
2023-04-19T02:16:41.325Z,19.37
2023-04-19T02:19:09.617Z,19.27
2023-04-19T02:21:37.724Z,17.03
2023-04-19T02:24:06.265Z,18.17
2023-04-19T02:26:34.426Z,18.20
2023-04-19T02:29:03.155Z,18.33
2023-04-19T02:31:32.944Z,17.63
2023-04-19T02:34:02.830Z,17.60
2023-04-19T02:36:30.901Z,15.93
2023-04-19T02:38:59.409Z,16.83
2023-04-19T02:41:27.504Z,21.00
2023-04-19T02:43:56.285Z,17.33
2023-04-19T02:46:24.358Z,15.43
2023-04-19T02:48:52.524Z,17.53
2023-04-19T02:51:22.186Z,14.70
2023-04-19T02:53:50.250Z,17.40
2023-04-19T02:56:18.303Z,17.87
2023-04-19T02:58:46.433Z,16.00
2023-04-19T03:01:14.519Z,15.87
2023-04-19T03:03:42.526Z,18.20
2023-04-19T03:06:10.682Z,16.50
2023-04-19T03:08:40.094Z,16.43
2023-04-19T03:11:08.204Z,18.67
2023-04-19T03:13:36.682Z,14.27
2023-04-19T03:16:05.859Z,16.03
2023-04-19T03:18:34.275Z,18.53
2023-04-19T03:21:05.546Z,18.23
2023-04-19T03:23:43.468Z,17.40
2023-04-19T03:26:11.818Z,16.07
2023-04-19T03:28:44.314Z,17.37
2023-04-19T03:31:31.105Z,15.43
2023-04-19T03:34:00.295Z,16.07
2023-04-19T03:36:34.266Z,15.33
2023-04-19T03:39:04.495Z,15.23
2023-04-19T03:41:32.595Z,17.00
2023-04-19T03:44:08.122Z,16.10
2023-04-19T03:46:36.986Z,15.40
2023-04-19T03:49:06.198Z,22.27
2023-04-19T03:51:36.579Z,16.00
2023-04-19T03:54:06.372Z,18.23
2023-04-19T03:56:34.546Z,20.17
2023-04-19T03:59:03.257Z,17.67
2023-04-19T04:01:41.766Z,15.73
2023-04-19T04:04:10.366Z,19.27
2023-04-19T04:06:39.022Z,17.77
2023-04-19T04:09:08.722Z,15.33
2023-04-19T04:11:36.943Z,17.03
2023-04-19T04:14:05.456Z,17.10
2023-04-19T04:16:37.558Z,18.53
2023-04-19T04:19:06.115Z,16.93
2023-04-19T04:21:37.417Z,18.90
2023-04-19T04:24:09.913Z,17.83
2023-04-19T04:26:44.689Z,18.40
2023-04-19T04:29:20.036Z,17.63
2023-04-19T04:31:50.128Z,15.03
2023-04-19T04:34:22.889Z,18.07
2023-04-19T04:36:56.594Z,15.90
2023-04-19T04:39:28.211Z,17.23
2023-04-19T04:41:57.846Z,19.90
2023-04-19T04:44:26.232Z,19.20
2023-04-19T04:46:57.237Z,14.87
2023-04-19T04:49:28.829Z,14.60
2023-04-19T04:51:58.008Z,18.63
2023-04-19T04:54:30.054Z,17.23
2023-04-19T04:57:00.881Z,21.40
2023-04-19T04:59:29.128Z,16.10
2023-04-19T05:01:59.241Z,18.53
2023-04-19T05:04:27.495Z,15.47
2023-04-19T05:06:55.496Z,15.53
2023-04-19T05:09:27.080Z,17.33
2023-04-19T05:11:56.716Z,16.00
2023-04-19T05:14:25.484Z,18.60
2023-04-19T05:16:53.547Z,17.10
2023-04-19T05:19:21.786Z,18.77
2023-04-19T05:21:56.276Z,17.47
2023-04-19T05:24:24.851Z,16.83
2023-04-19T05:26:53.090Z,16.00
2023-04-19T05:29:22.608Z,17.23
2023-04-19T05:31:59.278Z,18.17
2023-04-19T05:34:31.445Z,17.53
2023-04-19T05:37:00.753Z,18.70
2023-04-19T05:39:28.760Z,19.43
2023-04-19T05:41:56.830Z,17.73
2023-04-19T05:44:26.260Z,19.40
2023-04-19T05:46:54.380Z,19.50
2023-04-19T05:49:43.376Z,20.10
2023-04-19T05:52:21.940Z,21.43
2023-04-19T05:54:54.015Z,22.57
2023-04-19T05:57:22.311Z,18.00
2023-04-19T05:59:52.594Z,21.20
2023-04-19T06:02:24.702Z,18.60
2023-04-19T06:04:53.240Z,20.07
2023-04-19T06:07:30.896Z,18.20
2023-04-19T06:10:00.754Z,21.40
2023-04-19T06:12:29.164Z,17.23
2023-04-19T06:14:58.756Z,21.93
2023-04-19T06:17:27.545Z,20.80
2023-04-19T06:19:56.230Z,19.63
2023-04-19T06:22:24.544Z,22.73
2023-04-19T06:24:52.596Z,22.47
2023-04-19T06:27:20.620Z,20.40
2023-04-19T06:29:51.021Z,22.73
2023-04-19T06:32:20.860Z,22.70
2023-04-19T06:34:48.985Z,23.90
2023-04-19T06:37:17.062Z,26.33
2023-04-19T06:39:45.182Z,24.67
2023-04-19T06:44:57.455Z,25.87
2023-04-19T06:47:26.899Z,30.47
2023-04-19T06:49:55.248Z,28.47
2023-04-19T06:52:23.461Z,27.57
2023-04-19T06:54:51.971Z,29.77
2023-04-19T06:57:20.282Z,26.97
2023-04-19T06:59:48.411Z,24.30
2023-04-19T07:02:16.648Z,26.70
2023-04-19T07:04:46.812Z,32.93
2023-04-19T07:07:14.960Z,29.70
2023-04-19T07:09:43.057Z,32.33
2023-04-19T07:12:11.337Z,28.40
2023-04-19T07:14:39.855Z,26.77
2023-04-19T07:17:07.960Z,30.87
2023-04-19T07:19:36.612Z,28.43
2023-04-19T07:22:06.532Z,26.20
2023-04-19T07:24:35.699Z,25.60
2023-04-19T07:27:04.144Z,27.17
2023-04-19T07:29:32.379Z,24.57
2023-04-19T07:32:01.790Z,24.17
2023-04-19T07:34:29.851Z,28.10
2023-04-19T07:36:57.925Z,21.67
2023-04-19T07:39:27.544Z,24.37
2023-04-19T07:41:55.548Z,24.77
2023-04-19T07:44:23.682Z,22.70
2023-04-19T07:46:52.828Z,23.53
2023-04-19T07:49:21.367Z,27.70
2023-04-19T07:51:49.493Z,27.73
2023-04-19T07:54:20.120Z,27.07
2023-04-19T07:56:49.477Z,26.30
2023-04-19T07:59:17.581Z,28.43
2023-04-19T08:01:45.688Z,27.20
2023-04-19T08:04:14.163Z,24.17
2023-04-19T08:06:42.661Z,25.60
2023-04-19T08:09:10.745Z,23.80
2023-04-19T08:11:39.032Z,21.10
2023-04-19T08:14:18.501Z,20.60
2023-04-19T08:19:25.999Z,21.67
2023-04-19T08:21:54.187Z,22.50
2023-04-19T08:24:23.248Z,22.03
2023-04-19T08:26:54.715Z,22.73
2023-04-19T08:29:24.406Z,21.07
2023-04-19T08:31:52.554Z,23.53
2023-04-19T08:34:20.693Z,20.47
2023-04-19T08:37:00.126Z,20.63
2023-04-19T08:39:33.420Z,19.87
2023-04-19T08:42:11.008Z,20.47
2023-04-19T08:47:30.046Z,19.03
2023-04-19T08:50:14.085Z,17.23
2023-04-19T08:52:56.011Z,18.60
2023-04-19T08:55:31.029Z,21.47
2023-04-19T08:57:59.617Z,24.97
2023-04-19T09:00:29.098Z,17.00
2023-04-19T09:02:58.751Z,20.37
2023-04-19T09:05:27.416Z,18.70
2023-04-19T09:07:55.547Z,17.27
2023-04-19T09:10:25.690Z,17.63
2023-04-19T09:13:04.589Z,17.47
2023-04-19T09:15:41.951Z,14.13
2023-04-19T09:18:11.067Z,13.57
2023-04-19T09:20:39.954Z,15.33
2023-04-19T09:23:09.976Z,14.60
2023-04-19T09:26:05.883Z,14.10
2023-04-19T09:28:26.381Z,15.67
2023-04-19T09:31:03.544Z,17.13
2023-04-19T09:33:39.981Z,15.00
2023-04-19T09:36:09.126Z,16.93
2023-04-19T09:38:48.756Z,15.67
2023-04-19T09:41:18.385Z,17.33
2023-04-19T09:44:03.205Z,17.27
2023-04-19T09:46:37.712Z,20.53
2023-04-19T09:49:25.096Z,15.33
2023-04-19T09:51:59.071Z,17.83
2023-04-19T09:54:29.970Z,17.23
2023-04-19T09:57:00.169Z,14.67
2023-04-19T09:59:29.508Z,18.40
2023-04-19T10:02:01.978Z,17.13
2023-04-19T10:04:47.787Z,16.03
2023-04-19T10:07:30.285Z,16.80
2023-04-19T10:15:07.288Z,17.70
2023-04-19T10:17:37.007Z,17.43
2023-04-19T10:20:10.651Z,14.80
2023-04-19T10:22:39.873Z,22.27
2023-04-19T10:25:24.007Z,15.40
2023-04-19T10:27:57.637Z,19.30
2023-04-19T10:30:27.559Z,19.77
2023-04-19T10:32:59.347Z,15.40
2023-04-19T10:35:30.928Z,15.70
2023-04-19T10:38:07.268Z,14.60
2023-04-19T10:41:00.625Z,19.07
2023-04-19T10:43:30.291Z,17.77
2023-04-19T10:46:02.540Z,20.63
2023-04-19T10:48:40.714Z,16.40
2023-04-19T10:51:15.564Z,15.93
2023-04-19T10:53:49.418Z,15.97
2023-04-19T10:56:19.329Z,20.57
2023-04-19T10:59:22.043Z,24.00
2023-04-19T11:01:55.834Z,17.07
2023-04-19T11:04:41.373Z,17.53
2023-04-19T11:07:09.449Z,17.67
2023-04-19T11:09:39.559Z,18.80
2023-04-19T11:12:09.452Z,18.47
2023-04-19T11:14:38.655Z,15.57
2023-04-19T11:17:16.746Z,18.70
2023-04-19T11:19:53.972Z,14.97
2023-04-19T11:22:26.662Z,15.33
2023-04-19T11:24:54.688Z,18.00
2023-04-19T11:27:22.949Z,14.17
2023-04-19T11:29:50.990Z,15.00
2023-04-19T11:32:22.698Z,16.10
2023-04-19T11:34:52.205Z,11.90
2023-04-19T11:37:20.231Z,12.20
2023-04-19T11:39:48.426Z,11.80
2023-04-19T11:42:20.669Z,11.77
2023-04-19T11:44:52.778Z,14.73
2023-04-19T11:47:21.045Z,12.60
2023-04-19T11:49:49.344Z,13.80
2023-04-19T11:52:24.322Z,11.63
2023-04-19T11:54:52.976Z,10.80
2023-04-19T11:57:31.014Z,12.47
2023-04-19T12:00:11.709Z,10.40
2023-04-19T12:02:44.987Z,15.93
2023-04-19T12:05:15.877Z,13.37
2023-04-19T12:08:05.679Z,10.37
2023-04-19T12:10:33.895Z,9.07
2023-04-19T12:13:02.153Z,9.97
2023-04-19T12:15:43.291Z,12.53
2023-04-19T12:18:11.379Z,15.17
2023-04-19T12:20:48.748Z,14.30
2023-04-19T12:23:19.816Z,11.97
2023-04-19T12:25:49.428Z,11.30
2023-04-19T12:28:18.006Z,8.93
2023-04-19T12:30:47.362Z,11.97
2023-04-19T12:33:15.443Z,12.43
2023-04-19T12:35:44.996Z,10.13
2023-04-19T12:38:13.038Z,13.33
2023-04-19T12:40:42.340Z,11.33
2023-04-19T12:43:10.255Z,14.17
2023-04-19T12:45:38.292Z,10.13
2023-04-19T12:48:07.159Z,11.90
2023-04-19T12:50:35.291Z,9.80
2023-04-19T12:53:03.343Z,11.87
2023-04-19T12:55:31.754Z,10.27
2023-04-19T12:58:01.444Z,10.87
2023-04-19T13:00:30.203Z,7.83
2023-04-19T13:02:58.347Z,7.87
2023-04-19T13:05:26.414Z,8.37
2023-04-19T13:07:54.370Z,10.90
2023-04-19T13:10:22.331Z,8.47
2023-04-19T13:12:50.659Z,11.00
2023-04-19T13:15:19.969Z,9.80
2023-04-19T13:17:47.986Z,9.93
2023-04-19T13:20:16.127Z,12.10
2023-04-19T13:22:44.166Z,8.50
2023-04-19T13:25:12.127Z,9.57
2023-04-19T13:27:40.158Z,9.10
2023-04-19T13:30:09.541Z,9.87
2023-04-19T13:32:38.962Z,8.80
2023-04-19T13:35:07.734Z,8.73
2023-04-19T13:37:35.728Z,8.07
2023-04-19T13:40:18.022Z,7.10
2023-04-19T13:42:47.565Z,8.73
2023-04-19T13:45:15.747Z,9.53
2023-04-19T13:47:45.078Z,14.77
2023-04-19T13:50:13.676Z,8.30
2023-04-19T13:52:41.834Z,8.50
2023-04-19T13:55:10.589Z,7.67
2023-04-19T13:57:39.262Z,9.40
2023-04-19T14:00:08.774Z,11.33
2023-04-19T14:02:37.344Z,10.23
2023-04-19T14:05:07.843Z,15.87
2023-04-19T14:07:35.910Z,8.70
2023-04-19T14:10:03.985Z,11.43
2023-04-19T14:12:32.068Z,10.77
2023-04-19T14:15:00.164Z,9.10
2023-04-19T14:17:28.160Z,10.30
2023-04-19T14:19:57.038Z,11.43
2023-04-19T14:22:26.435Z,9.23
2023-04-19T14:24:54.503Z,11.23
2023-04-19T14:27:22.493Z,9.20
2023-04-19T14:29:50.602Z,12.83
2023-04-19T14:32:25.913Z,10.07
2023-04-19T14:34:55.141Z,16.57
2023-04-19T14:37:24.311Z,10.73
2023-04-19T14:39:54.074Z,10.37
2023-04-19T14:42:23.085Z,9.60
2023-04-19T14:44:52.853Z,12.07
2023-04-19T14:47:21.448Z,11.47
2023-04-19T14:49:49.958Z,10.83
2023-04-19T14:52:18.331Z,10.13
2023-04-19T14:54:46.562Z,12.27
2023-04-19T14:57:16.310Z,10.83
2023-04-19T14:59:44.384Z,9.87
2023-04-19T15:02:13.320Z,9.57
2023-04-19T15:04:42.417Z,12.43
2023-04-19T15:07:11.288Z,11.23
2023-04-19T15:09:40.213Z,10.53
2023-04-19T15:12:08.225Z,11.43
2023-04-19T15:14:37.908Z,11.43
2023-04-19T15:17:06.336Z,10.57
2023-04-19T15:19:34.305Z,10.07
2023-04-19T15:22:03.869Z,10.63
2023-04-19T15:24:31.960Z,10.60
2023-04-19T15:27:00.190Z,9.50
2023-04-19T15:29:28.273Z,16.80
2023-04-19T15:31:57.729Z,6.93
2023-04-19T15:34:25.945Z,7.07
2023-04-19T15:36:54.229Z,5.70
2023-04-19T15:39:22.230Z,6.20
2023-04-19T15:41:50.630Z,7.53
2023-04-19T15:44:18.660Z,8.00
2023-04-19T15:46:47.309Z,8.30
2023-04-19T15:49:16.890Z,7.40
2023-04-19T15:51:45.409Z,7.10
2023-04-19T15:54:15.421Z,8.20
2023-04-19T15:56:43.442Z,8.73
2023-04-19T15:59:11.438Z,7.47
2023-04-19T16:01:40.369Z,9.57
2023-04-19T16:04:08.416Z,8.97
2023-04-19T16:06:37.855Z,9.87
2023-04-19T16:09:06.502Z,10.30
2023-04-19T16:11:34.558Z,10.50
2023-04-19T16:14:02.516Z,12.23
2023-04-19T16:16:33.164Z,14.53
2023-04-19T16:19:01.509Z,10.47
2023-04-19T16:21:29.512Z,10.47
2023-04-19T16:24:00.687Z,14.20
2023-04-19T16:26:28.713Z,11.43
2023-04-19T16:28:56.912Z,12.20
2023-04-19T16:31:24.963Z,10.63
2023-04-19T16:33:53.038Z,11.10
2023-04-19T16:36:21.114Z,12.30
2023-04-19T16:38:49.085Z,13.40
2023-04-19T16:41:18.537Z,16.73
2023-04-19T16:43:46.471Z,13.40
2023-04-19T16:46:15.172Z,18.53
2023-04-19T16:48:43.391Z,17.40
2023-04-19T16:51:11.343Z,13.67
2023-04-19T16:53:39.299Z,12.73
2023-04-19T16:56:07.828Z,12.73
2023-04-19T16:58:37.163Z,13.97
2023-04-19T17:01:05.221Z,14.93
2023-04-19T17:03:33.951Z,18.53
2023-04-19T17:06:02.225Z,19.57
2023-04-19T17:08:30.936Z,18.53
2023-04-19T17:10:58.904Z,19.40
2023-04-19T17:13:27.329Z,17.80
2023-04-19T17:15:56.756Z,24.67
2023-04-19T17:18:24.726Z,24.63
2023-04-19T17:20:52.715Z,22.50
2023-04-19T17:23:21.214Z,26.90
2023-04-19T17:25:49.320Z,25.70
2023-04-19T17:28:17.252Z,25.00
2023-04-19T17:30:45.219Z,27.90
2023-04-19T17:33:14.594Z,21.23
2023-04-19T17:35:42.562Z,25.17
2023-04-19T17:38:11.450Z,26.93
2023-04-19T17:40:39.393Z,26.93
2023-04-19T17:43:07.499Z,29.17
2023-04-19T17:45:35.798Z,27.03
2023-04-19T17:48:03.810Z,27.57
2023-04-19T17:50:33.151Z,24.97
2023-04-19T17:53:01.123Z,25.20
2023-04-19T17:55:29.142Z,29.37
2023-04-19T17:57:57.155Z,30.33
2023-04-19T18:00:25.275Z,44.10
2023-04-19T18:02:53.386Z,66.57
2023-04-19T18:05:21.832Z,71.13
2023-04-19T18:07:51.290Z,72.83
2023-04-19T18:10:20.446Z,65.93
2023-04-19T18:12:48.404Z,57.63
2023-04-19T18:15:16.410Z,61.93
2023-04-19T18:17:44.402Z,66.20
2023-04-19T18:20:13.898Z,76.03
2023-04-19T18:22:42.131Z,67.43
2023-04-19T18:25:12.040Z,52.17
2023-04-19T18:27:39.998Z,40.70
2023-04-19T18:30:11.408Z,36.77
2023-04-19T18:32:39.464Z,47.13
2023-04-19T18:35:10.032Z,36.70
2023-04-19T18:37:46.555Z,34.77
2023-04-19T18:40:16.210Z,57.17
2023-04-19T18:42:44.215Z,39.40
2023-04-19T18:45:12.765Z,31.67
2023-04-19T18:47:40.961Z,30.67
2023-04-19T18:50:14.232Z,30.07
2023-04-19T18:52:46.287Z,30.37
2023-04-19T18:55:16.098Z,33.60
2023-04-19T18:57:44.153Z,33.50
2023-04-19T19:00:14.190Z,28.17
2023-04-19T19:02:43.832Z,29.77
2023-04-19T19:05:15.400Z,24.90
2023-04-19T19:07:45.200Z,27.50
2023-04-19T19:10:19.359Z,27.40
2023-04-19T19:12:48.940Z,29.03
2023-04-19T19:15:17.232Z,28.63
2023-04-19T19:17:49.270Z,27.30
2023-04-19T19:20:18.570Z,33.30
2023-04-19T19:22:46.681Z,36.50
2023-04-19T19:25:17.259Z,30.97
2023-04-19T19:28:02.847Z,29.37
2023-04-19T19:30:34.722Z,32.07
2023-04-19T19:33:05.263Z,30.87
2023-04-19T19:35:35.884Z,29.47
2023-04-19T19:38:04.180Z,27.60
2023-04-19T19:40:33.658Z,27.27
2023-04-19T19:43:02.308Z,28.67
2023-04-19T19:45:30.566Z,24.93
2023-04-19T19:48:00.493Z,28.47
2023-04-19T19:53:01.223Z,31.07
2023-04-19T19:55:30.013Z,26.00
2023-04-19T20:03:02.133Z,29.63
2023-04-19T20:05:30.840Z,25.77
2023-04-19T20:08:10.525Z,22.80
2023-04-19T20:10:39.407Z,31.33
2023-04-19T20:13:08.980Z,26.93
2023-04-19T20:15:38.440Z,28.00
2023-04-19T20:18:08.111Z,28.83
2023-04-19T20:20:37.197Z,30.00
2023-04-19T20:23:05.581Z,33.07
2023-04-19T20:25:33.797Z,30.47
2023-04-19T20:28:02.253Z,35.50
2023-04-19T20:30:31.768Z,36.33
2023-04-19T20:32:59.833Z,39.00
2023-04-19T20:35:28.043Z,39.83
2023-04-19T20:38:02.232Z,40.03
2023-04-19T20:40:31.848Z,49.23
2023-04-19T20:43:00.225Z,41.67
2023-04-19T20:45:28.554Z,41.90
2023-04-19T20:47:58.514Z,42.73
2023-04-19T20:50:26.889Z,40.67
2023-04-19T20:52:55.089Z,35.07
2023-04-19T20:55:23.208Z,40.27
2023-04-19T20:57:51.237Z,41.67
2023-04-19T21:00:19.716Z,36.30
2023-04-19T21:02:49.645Z,46.90
2023-04-19T21:05:19.088Z,36.10
2023-04-19T21:07:46.980Z,39.97
2023-04-19T21:10:17.116Z,38.83
2023-04-19T21:12:45.309Z,34.43
2023-04-19T21:15:13.741Z,35.20
2023-04-19T21:17:42.314Z,36.23
2023-04-19T21:20:14.346Z,42.47
2023-04-19T21:22:45.426Z,41.03
2023-04-19T21:25:13.952Z,38.50
2023-04-19T21:27:43.095Z,45.57
2023-04-19T21:30:13.333Z,41.10
2023-04-19T21:32:41.430Z,43.20
2023-04-19T21:35:10.249Z,40.20
2023-04-19T21:37:38.412Z,42.97
2023-04-19T21:40:10.876Z,40.17
2023-04-19T21:42:38.821Z,40.53
2023-04-19T21:45:08.226Z,38.77
2023-04-19T21:47:36.485Z,41.70
2023-04-19T21:50:04.823Z,36.83
2023-04-19T21:52:32.800Z,40.30
2023-04-19T21:55:00.745Z,37.00
2023-04-19T21:57:30.952Z,34.03
2023-04-19T21:59:59.190Z,37.27
2023-04-19T22:02:27.316Z,42.87
2023-04-19T22:04:55.407Z,41.27
2023-04-19T22:07:23.857Z,39.23
2023-04-19T22:09:52.306Z,40.83
2023-04-19T22:12:20.360Z,36.00
2023-04-19T22:14:49.774Z,37.77
2023-04-19T22:17:19.234Z,37.90
2023-04-19T22:19:47.732Z,37.63
2023-04-19T22:22:15.935Z,34.73
2023-04-19T22:24:56.224Z,36.20
2023-04-19T22:27:25.409Z,38.07
2023-04-19T22:29:54.770Z,33.73
2023-04-19T22:32:23.008Z,35.03
2023-04-19T22:34:51.222Z,38.70
2023-04-19T22:37:19.825Z,37.20
2023-04-19T22:39:47.806Z,40.23
2023-04-19T22:42:15.842Z,32.20
2023-04-19T22:44:43.821Z,35.43
2023-04-19T22:47:13.191Z,36.97
2023-04-19T22:49:43.001Z,38.43
2023-04-19T22:52:11.793Z,34.13
2023-04-19T22:54:39.792Z,34.13
2023-04-19T22:57:07.705Z,37.97
2023-04-19T22:59:35.814Z,32.87
2023-04-19T23:02:04.348Z,33.47
2023-04-19T23:04:36.365Z,37.53
2023-04-19T23:07:04.634Z,35.73
2023-04-19T23:09:32.679Z,37.03
2023-04-19T23:12:00.868Z,33.97
2023-04-19T23:14:29.426Z,34.20
2023-04-19T23:16:58.335Z,34.93
2023-04-19T23:19:26.424Z,36.93
2023-04-19T23:21:55.828Z,34.93
2023-04-19T23:24:23.922Z,34.53
2023-04-19T23:26:52.137Z,33.87
2023-04-19T23:29:20.129Z,32.67
2023-04-19T23:31:48.269Z,37.87
2023-04-19T23:34:16.651Z,33.20
2023-04-19T23:36:44.655Z,35.43
2023-04-19T23:39:16.311Z,36.30
2023-04-19T23:41:44.610Z,36.50
2023-04-19T23:44:12.551Z,31.33
2023-04-19T23:46:40.874Z,31.00
2023-04-19T23:49:09.313Z,27.70
2023-04-19T23:51:37.370Z,32.73
2023-04-19T23:54:05.753Z,28.87
2023-04-19T23:56:35.047Z,27.60
2023-04-19T23:59:03.107Z,33.27
